sensor_id;sensor_type;location;lat;lon;timestamp;temperature;humidity
22765;DHT22;11549;50.852;3.816;2023-07-30T00:00:27;16.80;99.90
22765;DHT22;11549;50.852;3.816;2023-07-30T00:02:55;16.80;99.90
22765;DHT22;11549;50.852;3.816;2023-07-30T00:05:24;16.70;99.90
22765;DHT22;11549;50.852;3.816;2023-07-30T00:07:52;16.70;99.90
22765;DHT22;11549;50.852;3.816;2023-07-30T00:10:21;16.70;99.90
22765;DHT22;11549;50.852;3.816;2023-07-30T00:12:49;16.80;99.90
22765;DHT22;11549;50.852;3.816;2023-07-30T00:15:19;16.80;99.90
22765;DHT22;11549;50.852;3.816;2023-07-30T00:17:48;16.80;99.90
22765;DHT22;11549;50.852;3.816;2023-07-30T00:20:16;16.70;99.90
22765;DHT22;11549;50.852;3.816;2023-07-30T00:22:45;16.80;99.90
22765;DHT22;11549;50.852;3.816;2023-07-30T00:25:15;16.70;99.90
22765;DHT22;11549;50.852;3.816;2023-07-30T00:27:44;16.80;99.90
22765;DHT22;11549;50.852;3.816;2023-07-30T00:30:12;16.70;99.90
22765;DHT22;11549;50.852;3.816;2023-07-30T00:32:42;16.70;99.90
22765;DHT22;11549;50.852;3.816;2023-07-30T00:35:11;16.70;99.90
22765;DHT22;11549;50.852;3.816;2023-07-30T00:37:40;16.60;99.90
22765;DHT22;11549;50.852;3.816;2023-07-30T00:40:09;16.70;99.90
22765;DHT22;11549;50.852;3.816;2023-07-30T00:42:38;16.80;99.90
22765;DHT22;11549;50.852;3.816;2023-07-30T00:45:07;16.70;99.90
22765;DHT22;11549;50.852;3.816;2023-07-30T00:47:37;16.70;99.90
22765;DHT22;11549;50.852;3.816;2023-07-30T00:50:08;16.80;99.90
22765;DHT22;11549;50.852;3.816;2023-07-30T00:52:37;16.70;99.90
22765;DHT22;11549;50.852;3.816;2023-07-30T00:55:07;16.70;99.90
22765;DHT22;11549;50.852;3.816;2023-07-30T00:57:36;16.80;99.90
22765;DHT22;11549;50.852;3.816;2023-07-30T01:00:06;16.80;99.90
22765;DHT22;11549;50.852;3.816;2023-07-30T01:02:36;16.90;99.90
22765;DHT22;11549;50.852;3.816;2023-07-30T01:05:05;16.90;99.90
22765;DHT22;11549;50.852;3.816;2023-07-30T01:07:35;16.90;99.90
22765;DHT22;11549;50.852;3.816;2023-07-30T01:10:04;16.80;99.90
22765;DHT22;11549;50.852;3.816;2023-07-30T01:12:33;16.80;99.90
22765;DHT22;11549;50.852;3.816;2023-07-30T01:15:03;16.80;99.90
22765;DHT22;11549;50.852;3.816;2023-07-30T01:17:32;16.80;99.90
22765;DHT22;11549;50.852;3.816;2023-07-30T01:20:00;16.80;99.90
22765;DHT22;11549;50.852;3.816;2023-07-30T01:22:31;16.80;99.90
22765;DHT22;11549;50.852;3.816;2023-07-30T01:24:59;16.80;99.90
22765;DHT22;11549;50.852;3.816;2023-07-30T01:27:29;16.80;99.90
22765;DHT22;11549;50.852;3.816;2023-07-30T01:30:02;16.80;99.90
22765;DHT22;11549;50.852;3.816;2023-07-30T01:32:31;16.70;99.90
22765;DHT22;11549;50.852;3.816;2023-07-30T01:35:02;16.70;99.90
22765;DHT22;11549;50.852;3.816;2023-07-30T01:37:33;16.70;99.90
22765;DHT22;11549;50.852;3.816;2023-07-30T01:40:02;16.90;99.90
22765;DHT22;11549;50.852;3.816;2023-07-30T01:42:31;16.80;99.90
22765;DHT22;11549;50.852;3.816;2023-07-30T01:44:59;16.80;99.90
22765;DHT22;11549;50.852;3.816;2023-07-30T01:47:27;16.80;99.90
22765;DHT22;11549;50.852;3.816;2023-07-30T01:49:56;16.70;99.90
22765;DHT22;11549;50.852;3.816;2023-07-30T01:52:27;16.70;99.90
22765;DHT22;11549;50.852;3.816;2023-07-30T01:54:57;16.70;99.90
22765;DHT22;11549;50.852;3.816;2023-07-30T01:57:25;16.80;99.90
22765;DHT22;11549;50.852;3.816;2023-07-30T01:59:54;16.80;99.90
22765;DHT22;11549;50.852;3.816;2023-07-30T02:02:22;16.70;99.90
22765;DHT22;11549;50.852;3.816;2023-07-30T02:04:51;16.60;99.90
22765;DHT22;11549;50.852;3.816;2023-07-30T02:07:19;16.60;99.90
22765;DHT22;11549;50.852;3.816;2023-07-30T02:09:48;16.60;99.90
22765;DHT22;11549;50.852;3.816;2023-07-30T02:12:18;16.60;99.90
22765;DHT22;11549;50.852;3.816;2023-07-30T02:14:46;16.70;99.90
22765;DHT22;11549;50.852;3.816;2023-07-30T02:17:14;16.60;99.90
22765;DHT22;11549;50.852;3.816;2023-07-30T02:19:43;16.60;99.90
22765;DHT22;11549;50.852;3.816;2023-07-30T02:22:11;16.60;99.90
22765;DHT22;11549;50.852;3.816;2023-07-30T02:24:40;16.60;99.90
22765;DHT22;11549;50.852;3.816;2023-07-30T02:27:08;16.50;99.90
22765;DHT22;11549;50.852;3.816;2023-07-30T02:29:37;16.50;99.90
22765;DHT22;11549;50.852;3.816;2023-07-30T02:32:07;16.40;99.90
22765;DHT22;11549;50.852;3.816;2023-07-30T02:34:35;16.50;99.90
22765;DHT22;11549;50.852;3.816;2023-07-30T02:37:04;16.60;99.90
22765;DHT22;11549;50.852;3.816;2023-07-30T02:39:32;16.60;99.90
22765;DHT22;11549;50.852;3.816;2023-07-30T02:42:00;16.60;99.90
22765;DHT22;11549;50.852;3.816;2023-07-30T02:44:29;16.60;99.90
22765;DHT22;11549;50.852;3.816;2023-07-30T02:46:58;16.50;99.90
22765;DHT22;11549;50.852;3.816;2023-07-30T02:49:27;16.40;99.90
22765;DHT22;11549;50.852;3.816;2023-07-30T02:51:55;16.50;99.90
22765;DHT22;11549;50.852;3.816;2023-07-30T02:54:25;16.50;99.90
22765;DHT22;11549;50.852;3.816;2023-07-30T02:56:54;16.50;99.90
22765;DHT22;11549;50.852;3.816;2023-07-30T02:59:22;16.50;99.90
22765;DHT22;11549;50.852;3.816;2023-07-30T03:01:50;16.50;99.90
22765;DHT22;11549;50.852;3.816;2023-07-30T03:04:20;16.50;99.90
22765;DHT22;11549;50.852;3.816;2023-07-30T03:06:49;16.50;99.90
22765;DHT22;11549;50.852;3.816;2023-07-30T03:09:17;16.50;99.90
22765;DHT22;11549;50.852;3.816;2023-07-30T03:11:46;16.40;99.90
22765;DHT22;11549;50.852;3.816;2023-07-30T03:14:14;16.50;99.90
22765;DHT22;11549;50.852;3.816;2023-07-30T03:16:43;16.30;99.90
22765;DHT22;11549;50.852;3.816;2023-07-30T03:19:11;16.30;99.90
22765;DHT22;11549;50.852;3.816;2023-07-30T03:21:41;16.30;99.90
22765;DHT22;11549;50.852;3.816;2023-07-30T03:24:10;16.30;99.90
22765;DHT22;11549;50.852;3.816;2023-07-30T03:26:38;16.30;99.90
22765;DHT22;11549;50.852;3.816;2023-07-30T03:29:06;16.20;99.90
22765;DHT22;11549;50.852;3.816;2023-07-30T03:31:35;16.20;99.90
22765;DHT22;11549;50.852;3.816;2023-07-30T03:34:04;16.30;99.90
22765;DHT22;11549;50.852;3.816;2023-07-30T03:36:32;16.30;99.90
22765;DHT22;11549;50.852;3.816;2023-07-30T03:39:02;16.30;99.90
22765;DHT22;11549;50.852;3.816;2023-07-30T03:41:30;16.30;99.90
22765;DHT22;11549;50.852;3.816;2023-07-30T03:43:59;16.30;99.90
22765;DHT22;11549;50.852;3.816;2023-07-30T03:46:27;16.20;99.90
22765;DHT22;11549;50.852;3.816;2023-07-30T03:48:55;16.10;99.90
22765;DHT22;11549;50.852;3.816;2023-07-30T03:51:24;16.10;99.90
22765;DHT22;11549;50.852;3.816;2023-07-30T03:53:52;16.00;99.90
22765;DHT22;11549;50.852;3.816;2023-07-30T03:56:22;16.10;99.90
22765;DHT22;11549;50.852;3.816;2023-07-30T03:58:52;16.10;99.90
22765;DHT22;11549;50.852;3.816;2023-07-30T04:01:21;16.20;99.90
22765;DHT22;11549;50.852;3.816;2023-07-30T04:03:49;16.10;99.90
22765;DHT22;11549;50.852;3.816;2023-07-30T04:06:18;16.00;99.90
22765;DHT22;11549;50.852;3.816;2023-07-30T04:08:46;16.10;99.90
22765;DHT22;11549;50.852;3.816;2023-07-30T04:11:14;16.10;99.90
22765;DHT22;11549;50.852;3.816;2023-07-30T04:13:44;16.00;99.90
22765;DHT22;11549;50.852;3.816;2023-07-30T04:16:13;16.10;99.90
22765;DHT22;11549;50.852;3.816;2023-07-30T04:18:41;16.10;99.90
22765;DHT22;11549;50.852;3.816;2023-07-30T04:21:09;16.10;99.90
22765;DHT22;11549;50.852;3.816;2023-07-30T04:23:38;16.10;99.90
22765;DHT22;11549;50.852;3.816;2023-07-30T04:26:06;16.10;99.90
22765;DHT22;11549;50.852;3.816;2023-07-30T04:28:35;16.10;99.90
22765;DHT22;11549;50.852;3.816;2023-07-30T04:31:05;16.20;99.90
22765;DHT22;11549;50.852;3.816;2023-07-30T04:33:33;16.10;99.90
22765;DHT22;11549;50.852;3.816;2023-07-30T04:36:01;16.20;99.90
22765;DHT22;11549;50.852;3.816;2023-07-30T04:38:30;16.20;99.90
22765;DHT22;11549;50.852;3.816;2023-07-30T04:40:58;16.20;99.90
22765;DHT22;11549;50.852;3.816;2023-07-30T04:43:27;16.20;99.90
22765;DHT22;11549;50.852;3.816;2023-07-30T04:45:55;16.30;99.90
22765;DHT22;11549;50.852;3.816;2023-07-30T04:48:25;16.20;99.90
22765;DHT22;11549;50.852;3.816;2023-07-30T04:50:53;16.30;99.90
22765;DHT22;11549;50.852;3.816;2023-07-30T04:53:22;16.30;99.90
22765;DHT22;11549;50.852;3.816;2023-07-30T04:55:55;16.30;99.90
22765;DHT22;11549;50.852;3.816;2023-07-30T04:58:23;16.40;99.90
22765;DHT22;11549;50.852;3.816;2023-07-30T05:00:52;16.30;99.90
22765;DHT22;11549;50.852;3.816;2023-07-30T05:03:20;16.30;99.90
22765;DHT22;11549;50.852;3.816;2023-07-30T05:05:50;16.30;99.90
22765;DHT22;11549;50.852;3.816;2023-07-30T05:08:18;16.40;99.90
22765;DHT22;11549;50.852;3.816;2023-07-30T05:10:47;16.40;99.90
22765;DHT22;11549;50.852;3.816;2023-07-30T05:13:15;16.40;99.90
22765;DHT22;11549;50.852;3.816;2023-07-30T05:15:46;16.60;99.90
22765;DHT22;11549;50.852;3.816;2023-07-30T05:18:15;16.50;99.90
22765;DHT22;11549;50.852;3.816;2023-07-30T05:20:45;16.40;99.90
22765;DHT22;11549;50.852;3.816;2023-07-30T05:23:16;16.40;99.90
22765;DHT22;11549;50.852;3.816;2023-07-30T05:25:44;16.50;99.90
22765;DHT22;11549;50.852;3.816;2023-07-30T05:28:12;16.60;99.90
22765;DHT22;11549;50.852;3.816;2023-07-30T05:30:41;16.60;99.90
22765;DHT22;11549;50.852;3.816;2023-07-30T05:33:09;16.60;99.90
22765;DHT22;11549;50.852;3.816;2023-07-30T05:35:39;16.70;99.90
22765;DHT22;11549;50.852;3.816;2023-07-30T05:38:07;16.70;99.90
22765;DHT22;11549;50.852;3.816;2023-07-30T05:40:37;16.70;99.90
22765;DHT22;11549;50.852;3.816;2023-07-30T05:43:06;16.80;99.90
22765;DHT22;11549;50.852;3.816;2023-07-30T05:45:35;16.70;99.90
22765;DHT22;11549;50.852;3.816;2023-07-30T05:48:03;16.70;99.90
22765;DHT22;11549;50.852;3.816;2023-07-30T05:50:31;16.70;99.90
22765;DHT22;11549;50.852;3.816;2023-07-30T05:53:00;16.80;99.90
22765;DHT22;11549;50.852;3.816;2023-07-30T05:55:28;16.80;99.90
22765;DHT22;11549;50.852;3.816;2023-07-30T05:57:58;16.80;99.90
22765;DHT22;11549;50.852;3.816;2023-07-30T06:00:26;16.80;99.90
22765;DHT22;11549;50.852;3.816;2023-07-30T06:02:55;16.70;99.90
22765;DHT22;11549;50.852;3.816;2023-07-30T06:05:23;16.70;99.90
22765;DHT22;11549;50.852;3.816;2023-07-30T06:07:51;16.70;99.90
22765;DHT22;11549;50.852;3.816;2023-07-30T06:10:20;16.80;99.90
22765;DHT22;11549;50.852;3.816;2023-07-30T06:12:49;16.80;99.90
22765;DHT22;11549;50.852;3.816;2023-07-30T06:15:18;16.90;99.90
22765;DHT22;11549;50.852;3.816;2023-07-30T06:17:47;17.00;99.90
22765;DHT22;11549;50.852;3.816;2023-07-30T06:20:15;17.00;99.90
22765;DHT22;11549;50.852;3.816;2023-07-30T06:22:44;17.20;99.90
22765;DHT22;11549;50.852;3.816;2023-07-30T06:25:13;17.20;99.90
22765;DHT22;11549;50.852;3.816;2023-07-30T06:27:41;17.30;99.90
22765;DHT22;11549;50.852;3.816;2023-07-30T06:30:10;17.40;99.90
22765;DHT22;11549;50.852;3.816;2023-07-30T06:32:43;17.30;99.90
22765;DHT22;11549;50.852;3.816;2023-07-30T06:35:11;17.60;99.90
22765;DHT22;11549;50.852;3.816;2023-07-30T06:37:40;18.00;99.90
22765;DHT22;11549;50.852;3.816;2023-07-30T06:40:08;18.30;99.90
22765;DHT22;11549;50.852;3.816;2023-07-30T06:42:36;18.70;99.90
22765;DHT22;11549;50.852;3.816;2023-07-30T06:45:06;19.00;99.90
22765;DHT22;11549;50.852;3.816;2023-07-30T06:47:37;19.20;99.90
22765;DHT22;11549;50.852;3.816;2023-07-30T06:50:11;19.50;99.90
22765;DHT22;11549;50.852;3.816;2023-07-30T06:52:40;19.70;99.90
22765;DHT22;11549;50.852;3.816;2023-07-30T06:55:08;19.70;99.90
22765;DHT22;11549;50.852;3.816;2023-07-30T06:57:37;19.80;99.90
22765;DHT22;11549;50.852;3.816;2023-07-30T07:00:06;19.80;99.90
22765;DHT22;11549;50.852;3.816;2023-07-30T07:02:35;19.60;99.90
22765;DHT22;11549;50.852;3.816;2023-07-30T07:05:04;19.50;99.90
22765;DHT22;11549;50.852;3.816;2023-07-30T07:07:34;19.40;99.90
22765;DHT22;11549;50.852;3.816;2023-07-30T07:10:03;19.30;99.90
22765;DHT22;11549;50.852;3.816;2023-07-30T07:12:32;19.20;99.90
22765;DHT22;11549;50.852;3.816;2023-07-30T07:15:00;19.10;99.90
22765;DHT22;11549;50.852;3.816;2023-07-30T07:17:29;19.00;99.90
22765;DHT22;11549;50.852;3.816;2023-07-30T07:19:57;19.00;99.90
22765;DHT22;11549;50.852;3.816;2023-07-30T07:22:25;18.90;99.90
22765;DHT22;11549;50.852;3.816;2023-07-30T07:24:55;18.90;99.90
22765;DHT22;11549;50.852;3.816;2023-07-30T07:27:24;19.00;99.90
22765;DHT22;11549;50.852;3.816;2023-07-30T07:29:52;18.90;99.90
22765;DHT22;11549;50.852;3.816;2023-07-30T07:32:20;18.90;99.90
22765;DHT22;11549;50.852;3.816;2023-07-30T07:34:49;19.00;99.90
22765;DHT22;11549;50.852;3.816;2023-07-30T07:37:18;18.90;99.90
22765;DHT22;11549;50.852;3.816;2023-07-30T07:39:47;19.10;99.90
22765;DHT22;11549;50.852;3.816;2023-07-30T07:42:16;19.30;99.90
22765;DHT22;11549;50.852;3.816;2023-07-30T07:44:45;19.30;99.90
22765;DHT22;11549;50.852;3.816;2023-07-30T07:47:15;19.30;99.90
22765;DHT22;11549;50.852;3.816;2023-07-30T07:49:43;19.40;99.90
22765;DHT22;11549;50.852;3.816;2023-07-30T07:52:12;19.40;99.90
22765;DHT22;11549;50.852;3.816;2023-07-30T07:54:41;19.50;99.90
22765;DHT22;11549;50.852;3.816;2023-07-30T07:57:10;19.60;99.90
22765;DHT22;11549;50.852;3.816;2023-07-30T07:59:40;19.80;99.90
22765;DHT22;11549;50.852;3.816;2023-07-30T08:02:12;19.90;99.90
22765;DHT22;11549;50.852;3.816;2023-07-30T08:04:40;19.90;99.90
22765;DHT22;11549;50.852;3.816;2023-07-30T08:07:09;19.90;99.90
22765;DHT22;11549;50.852;3.816;2023-07-30T08:09:37;19.80;99.90
22765;DHT22;11549;50.852;3.816;2023-07-30T08:12:06;19.50;99.90
22765;DHT22;11549;50.852;3.816;2023-07-30T08:14:35;19.40;99.90
22765;DHT22;11549;50.852;3.816;2023-07-30T08:17:05;19.30;99.90
22765;DHT22;11549;50.852;3.816;2023-07-30T08:19:33;19.20;99.90
22765;DHT22;11549;50.852;3.816;2023-07-30T08:22:02;19.30;99.90
22765;DHT22;11549;50.852;3.816;2023-07-30T08:24:30;19.20;99.90
22765;DHT22;11549;50.852;3.816;2023-07-30T08:26:59;19.30;99.90
22765;DHT22;11549;50.852;3.816;2023-07-30T08:29:27;19.10;99.90
22765;DHT22;11549;50.852;3.816;2023-07-30T08:31:55;19.00;99.90
22765;DHT22;11549;50.852;3.816;2023-07-30T08:34:26;19.10;99.90
22765;DHT22;11549;50.852;3.816;2023-07-30T08:36:54;19.20;99.90
22765;DHT22;11549;50.852;3.816;2023-07-30T08:39:22;19.30;99.90
22765;DHT22;11549;50.852;3.816;2023-07-30T08:41:51;19.20;99.90
22765;DHT22;11549;50.852;3.816;2023-07-30T08:44:19;19.00;99.90
22765;DHT22;11549;50.852;3.816;2023-07-30T08:46:47;19.00;99.90
22765;DHT22;11549;50.852;3.816;2023-07-30T08:49:17;18.80;99.90
22765;DHT22;11549;50.852;3.816;2023-07-30T08:51:48;18.60;99.90
22765;DHT22;11549;50.852;3.816;2023-07-30T08:54:20;18.70;99.90
22765;DHT22;11549;50.852;3.816;2023-07-30T08:56:50;18.50;99.90
22765;DHT22;11549;50.852;3.816;2023-07-30T08:59:19;18.40;99.90
22765;DHT22;11549;50.852;3.816;2023-07-30T09:01:51;18.30;99.90
22765;DHT22;11549;50.852;3.816;2023-07-30T09:04:20;18.30;99.90
22765;DHT22;11549;50.852;3.816;2023-07-30T09:06:50;18.30;99.90
22765;DHT22;11549;50.852;3.816;2023-07-30T09:09:19;18.40;99.90
22765;DHT22;11549;50.852;3.816;2023-07-30T09:11:51;18.60;99.90
22765;DHT22;11549;50.852;3.816;2023-07-30T09:14:21;18.80;99.90
22765;DHT22;11549;50.852;3.816;2023-07-30T09:16:56;18.90;99.90
22765;DHT22;11549;50.852;3.816;2023-07-30T09:19:25;19.00;99.90
22765;DHT22;11549;50.852;3.816;2023-07-30T09:21:55;19.00;99.90
22765;DHT22;11549;50.852;3.816;2023-07-30T09:24:23;18.90;99.90
22765;DHT22;11549;50.852;3.816;2023-07-30T09:26:52;18.90;99.90
22765;DHT22;11549;50.852;3.816;2023-07-30T09:29:20;19.20;99.90
22765;DHT22;11549;50.852;3.816;2023-07-30T09:31:50;19.50;99.90
22765;DHT22;11549;50.852;3.816;2023-07-30T09:34:23;19.60;99.90
22765;DHT22;11549;50.852;3.816;2023-07-30T09:36:53;19.80;99.90
22765;DHT22;11549;50.852;3.816;2023-07-30T09:39:24;20.00;99.90
22765;DHT22;11549;50.852;3.816;2023-07-30T09:41:59;20.20;99.90
22765;DHT22;11549;50.852;3.816;2023-07-30T09:44:28;20.50;99.90
22765;DHT22;11549;50.852;3.816;2023-07-30T09:46:56;21.10;99.90
22765;DHT22;11549;50.852;3.816;2023-07-30T09:49:24;21.60;99.90
22765;DHT22;11549;50.852;3.816;2023-07-30T09:51:53;21.90;99.90
22765;DHT22;11549;50.852;3.816;2023-07-30T09:54:24;22.40;99.90
22765;DHT22;11549;50.852;3.816;2023-07-30T09:56:53;22.70;99.90
22765;DHT22;11549;50.852;3.816;2023-07-30T09:59:21;22.70;99.90
22765;DHT22;11549;50.852;3.816;2023-07-30T10:01:50;22.60;99.90
22765;DHT22;11549;50.852;3.816;2023-07-30T10:04:22;22.50;99.90
22765;DHT22;11549;50.852;3.816;2023-07-30T10:06:58;22.30;99.90
22765;DHT22;11549;50.852;3.816;2023-07-30T10:09:32;22.20;99.90
22765;DHT22;11549;50.852;3.816;2023-07-30T10:12:02;22.30;99.90
22765;DHT22;11549;50.852;3.816;2023-07-30T10:14:32;22.30;99.90
22765;DHT22;11549;50.852;3.816;2023-07-30T10:17:00;22.30;99.90
22765;DHT22;11549;50.852;3.816;2023-07-30T10:19:29;22.60;99.90
22765;DHT22;11549;50.852;3.816;2023-07-30T10:22:20;23.00;99.90
22765;DHT22;11549;50.852;3.816;2023-07-30T10:24:58;23.60;99.90
22765;DHT22;11549;50.852;3.816;2023-07-30T10:27:28;24.10;99.90
22765;DHT22;11549;50.852;3.816;2023-07-30T10:30:09;24.60;99.90
22765;DHT22;11549;50.852;3.816;2023-07-30T10:32:38;24.80;99.90
22765;DHT22;11549;50.852;3.816;2023-07-30T10:35:07;24.50;99.90
22765;DHT22;11549;50.852;3.816;2023-07-30T10:37:35;24.10;99.90
22765;DHT22;11549;50.852;3.816;2023-07-30T10:40:18;23.70;99.90
22765;DHT22;11549;50.852;3.816;2023-07-30T10:42:46;23.70;99.90
22765;DHT22;11549;50.852;3.816;2023-07-30T10:45:16;24.00;99.90
22765;DHT22;11549;50.852;3.816;2023-07-30T10:47:44;24.50;99.90
22765;DHT22;11549;50.852;3.816;2023-07-30T10:50:13;24.60;99.90
22765;DHT22;11549;50.852;3.816;2023-07-30T10:52:44;24.50;99.90
22765;DHT22;11549;50.852;3.816;2023-07-30T10:55:12;24.40;99.90
22765;DHT22;11549;50.852;3.816;2023-07-30T10:57:42;24.30;99.90
22765;DHT22;11549;50.852;3.816;2023-07-30T11:00:12;24.50;99.90
22765;DHT22;11549;50.852;3.816;2023-07-30T11:02:40;24.60;99.90
22765;DHT22;11549;50.852;3.816;2023-07-30T11:05:12;24.70;99.90
22765;DHT22;11549;50.852;3.816;2023-07-30T11:07:49;24.90;99.90
22765;DHT22;11549;50.852;3.816;2023-07-30T11:10:18;25.00;99.90
22765;DHT22;11549;50.852;3.816;2023-07-30T11:12:49;25.20;99.90
22765;DHT22;11549;50.852;3.816;2023-07-30T11:15:18;25.30;99.90
22765;DHT22;11549;50.852;3.816;2023-07-30T11:17:47;25.40;99.90
22765;DHT22;11549;50.852;3.816;2023-07-30T11:20:23;25.70;99.90
22765;DHT22;11549;50.852;3.816;2023-07-30T11:22:54;26.10;99.90
22765;DHT22;11549;50.852;3.816;2023-07-30T11:25:22;26.20;99.90
22765;DHT22;11549;50.852;3.816;2023-07-30T11:27:51;26.30;99.90
22765;DHT22;11549;50.852;3.816;2023-07-30T11:30:20;26.40;99.90
22765;DHT22;11549;50.852;3.816;2023-07-30T11:32:48;26.70;99.90
22765;DHT22;11549;50.852;3.816;2023-07-30T11:35:17;26.80;99.90
22765;DHT22;11549;50.852;3.816;2023-07-30T11:37:45;26.90;99.90
22765;DHT22;11549;50.852;3.816;2023-07-30T11:40:14;26.90;99.80
22765;DHT22;11549;50.852;3.816;2023-07-30T11:42:42;27.20;99.90
22765;DHT22;11549;50.852;3.816;2023-07-30T11:45:19;26.80;97.50
22765;DHT22;11549;50.852;3.816;2023-07-30T11:47:49;26.40;99.20
22765;DHT22;11549;50.852;3.816;2023-07-30T11:50:17;26.10;98.90
22765;DHT22;11549;50.852;3.816;2023-07-30T11:52:56;26.10;99.90
22765;DHT22;11549;50.852;3.816;2023-07-30T11:55:37;25.90;99.90
22765;DHT22;11549;50.852;3.816;2023-07-30T11:58:05;25.80;99.40
22765;DHT22;11549;50.852;3.816;2023-07-30T12:00:35;25.70;98.40
22765;DHT22;11549;50.852;3.816;2023-07-30T12:03:05;25.20;97.60
22765;DHT22;11549;50.852;3.816;2023-07-30T12:05:35;25.00;98.60
22765;DHT22;11549;50.852;3.816;2023-07-30T12:08:05;25.10;98.90
22765;DHT22;11549;50.852;3.816;2023-07-30T12:10:44;25.00;99.20
22765;DHT22;11549;50.852;3.816;2023-07-30T12:13:16;25.30;99.90
22765;DHT22;11549;50.852;3.816;2023-07-30T12:15:50;25.30;99.20
22765;DHT22;11549;50.852;3.816;2023-07-30T12:18:19;25.10;99.60
22765;DHT22;11549;50.852;3.816;2023-07-30T12:20:48;25.30;98.90
22765;DHT22;11549;50.852;3.816;2023-07-30T12:23:17;25.60;99.00
22765;DHT22;11549;50.852;3.816;2023-07-30T12:25:46;25.90;98.80
22765;DHT22;11549;50.852;3.816;2023-07-30T12:28:15;25.90;99.30
22765;DHT22;11549;50.852;3.816;2023-07-30T12:30:43;26.10;98.60
22765;DHT22;11549;50.852;3.816;2023-07-30T12:33:13;26.10;97.20
22765;DHT22;11549;50.852;3.816;2023-07-30T12:35:41;26.00;97.60
22765;DHT22;11549;50.852;3.816;2023-07-30T12:38:09;25.70;98.70
22765;DHT22;11549;50.852;3.816;2023-07-30T12:40:38;25.60;96.10
22765;DHT22;11549;50.852;3.816;2023-07-30T12:43:06;25.40;97.90
22765;DHT22;11549;50.852;3.816;2023-07-30T12:45:36;25.70;97.30
22765;DHT22;11549;50.852;3.816;2023-07-30T12:48:05;25.80;97.90
22765;DHT22;11549;50.852;3.816;2023-07-30T12:50:36;25.60;97.40
22765;DHT22;11549;50.852;3.816;2023-07-30T12:53:04;25.30;96.40
22765;DHT22;11549;50.852;3.816;2023-07-30T12:55:33;25.00;96.00
22765;DHT22;11549;50.852;3.816;2023-07-30T12:58:02;24.70;97.20
22765;DHT22;11549;50.852;3.816;2023-07-30T13:00:30;24.70;97.10
22765;DHT22;11549;50.852;3.816;2023-07-30T13:02:59;25.00;98.40
22765;DHT22;11549;50.852;3.816;2023-07-30T13:05:29;24.90;97.70
22765;DHT22;11549;50.852;3.816;2023-07-30T13:07:59;24.90;98.70
22765;DHT22;11549;50.852;3.816;2023-07-30T13:10:29;25.00;98.60
22765;DHT22;11549;50.852;3.816;2023-07-30T13:12:58;25.10;97.50
22765;DHT22;11549;50.852;3.816;2023-07-30T13:15:26;25.40;98.80
22765;DHT22;11549;50.852;3.816;2023-07-30T13:17:55;25.30;98.40
22765;DHT22;11549;50.852;3.816;2023-07-30T13:20:23;25.50;97.50
22765;DHT22;11549;50.852;3.816;2023-07-30T13:22:52;25.30;97.50
22765;DHT22;11549;50.852;3.816;2023-07-30T13:25:23;25.00;98.20
22765;DHT22;11549;50.852;3.816;2023-07-30T13:27:51;24.70;99.30
22765;DHT22;11549;50.852;3.816;2023-07-30T13:30:19;24.30;99.90
22765;DHT22;11549;50.852;3.816;2023-07-30T13:32:48;24.10;99.90
22765;DHT22;11549;50.852;3.816;2023-07-30T13:35:16;24.30;99.90
22765;DHT22;11549;50.852;3.816;2023-07-30T13:37:45;24.60;99.90
22765;DHT22;11549;50.852;3.816;2023-07-30T13:40:13;24.70;99.90
22765;DHT22;11549;50.852;3.816;2023-07-30T13:42:43;24.50;99.90
22765;DHT22;11549;50.852;3.816;2023-07-30T13:45:11;24.30;99.90
22765;DHT22;11549;50.852;3.816;2023-07-30T13:47:41;24.10;99.90
22765;DHT22;11549;50.852;3.816;2023-07-30T13:50:10;24.00;99.90
22765;DHT22;11549;50.852;3.816;2023-07-30T13:52:38;23.90;99.90
22765;DHT22;11549;50.852;3.816;2023-07-30T13:55:07;23.70;99.90
22765;DHT22;11549;50.852;3.816;2023-07-30T13:57:35;23.90;99.90
22765;DHT22;11549;50.852;3.816;2023-07-30T14:00:07;24.20;99.90
22765;DHT22;11549;50.852;3.816;2023-07-30T14:02:36;24.20;99.90
22765;DHT22;11549;50.852;3.816;2023-07-30T14:05:05;24.20;99.90
22765;DHT22;11549;50.852;3.816;2023-07-30T14:07:33;24.30;99.90
22765;DHT22;11549;50.852;3.816;2023-07-30T14:10:02;24.30;99.90
22765;DHT22;11549;50.852;3.816;2023-07-30T14:12:30;24.40;99.90
22765;DHT22;11549;50.852;3.816;2023-07-30T14:14:58;24.20;99.90
22765;DHT22;11549;50.852;3.816;2023-07-30T14:17:28;24.10;99.90
22765;DHT22;11549;50.852;3.816;2023-07-30T14:19:56;24.00;99.90
22765;DHT22;11549;50.852;3.816;2023-07-30T14:22:25;23.90;99.90
22765;DHT22;11549;50.852;3.816;2023-07-30T14:24:53;23.70;99.90
22765;DHT22;11549;50.852;3.816;2023-07-30T14:27:24;23.60;99.90
22765;DHT22;11549;50.852;3.816;2023-07-30T14:29:53;23.40;99.90
22765;DHT22;11549;50.852;3.816;2023-07-30T14:32:23;23.20;99.90
22765;DHT22;11549;50.852;3.816;2023-07-30T14:34:53;22.90;99.90
22765;DHT22;11549;50.852;3.816;2023-07-30T14:37:21;22.90;99.90
22765;DHT22;11549;50.852;3.816;2023-07-30T14:39:50;22.90;99.90
22765;DHT22;11549;50.852;3.816;2023-07-30T14:42:18;22.90;99.90
22765;DHT22;11549;50.852;3.816;2023-07-30T14:44:47;22.90;99.90
22765;DHT22;11549;50.852;3.816;2023-07-30T14:47:15;22.90;99.90
22765;DHT22;11549;50.852;3.816;2023-07-30T14:49:44;22.80;99.90
22765;DHT22;11549;50.852;3.816;2023-07-30T14:52:15;22.80;99.90
22765;DHT22;11549;50.852;3.816;2023-07-30T14:54:44;22.70;99.90
22765;DHT22;11549;50.852;3.816;2023-07-30T14:57:12;22.80;99.90
22765;DHT22;11549;50.852;3.816;2023-07-30T14:59:41;22.60;99.90
22765;DHT22;11549;50.852;3.816;2023-07-30T15:02:09;22.30;99.90
22765;DHT22;11549;50.852;3.816;2023-07-30T15:04:37;22.20;99.90
22765;DHT22;11549;50.852;3.816;2023-07-30T15:07:06;22.00;99.90
22765;DHT22;11549;50.852;3.816;2023-07-30T15:09:37;21.80;99.90
22765;DHT22;11549;50.852;3.816;2023-07-30T15:12:06;21.80;99.90
22765;DHT22;11549;50.852;3.816;2023-07-30T15:14:34;21.80;99.90
22765;DHT22;11549;50.852;3.816;2023-07-30T15:17:03;21.80;99.90
22765;DHT22;11549;50.852;3.816;2023-07-30T15:19:32;21.70;99.90
22765;DHT22;11549;50.852;3.816;2023-07-30T15:22:00;21.50;99.90
22765;DHT22;11549;50.852;3.816;2023-07-30T15:24:29;21.40;99.90
22765;DHT22;11549;50.852;3.816;2023-07-30T15:26:59;21.40;99.90
22765;DHT22;11549;50.852;3.816;2023-07-30T15:29:27;21.30;99.90
22765;DHT22;11549;50.852;3.816;2023-07-30T15:31:55;21.30;99.90
22765;DHT22;11549;50.852;3.816;2023-07-30T15:34:24;21.20;99.90
22765;DHT22;11549;50.852;3.816;2023-07-30T15:36:52;21.30;99.90
22765;DHT22;11549;50.852;3.816;2023-07-30T15:39:21;21.20;99.90
22765;DHT22;11549;50.852;3.816;2023-07-30T15:41:49;21.10;99.90